Morganville, Kansas
Current Conditions -  °F | °C
As of 6:55 AM on Thursday 30 Oct 2014 (Local Time) from KCNK Reporting Station
Clear Clear  
Wind Chill: 38°   Ceiling: Unl
Heat Index: 43°   Visibility: 10mi
Dew Point: 38°   Wind: 9mph
Humidity: 82%   Direction: 300°WNW
Pressure: 30.05"   Gusts: NA
Location:  39.47°N, 97.2°W
Report Text: KCNK 301155Z AUTO 30008KT 10SM CLR 06/03 A3005 RMK AO2 SLP177 T00610033 10128 20061 53028
Loading
Personal Weather Stations






























Interactive Weather Map
Tropical Storm Tracking
New forecast layout! Learn more

10-Day Weather Forecast

Advertisements
Track Severe Weather on mobile